sensor_id;sensor_type;location;lat;lon;timestamp;temperature;humidity
2212;DHT22;48849;48.758;9.158;2023-11-22T00:01:10;11.90;99.90
2212;DHT22;48849;48.758;9.158;2023-11-22T00:03:36;11.90;99.90
2212;DHT22;48849;48.758;9.158;2023-11-22T00:06:04;11.90;99.90
2212;DHT22;48849;48.758;9.158;2023-11-22T00:08:32;11.90;99.90
2212;DHT22;48849;48.758;9.158;2023-11-22T00:10:58;11.90;99.90
2212;DHT22;48849;48.758;9.158;2023-11-22T00:13:25;11.90;99.90
2212;DHT22;48849;48.758;9.158;2023-11-22T00:15:52;11.90;99.90
2212;DHT22;48849;48.758;9.158;2023-11-22T00:18:19;11.90;99.90
2212;DHT22;48849;48.758;9.158;2023-11-22T00:20:46;11.90;99.90
2212;DHT22;48849;48.758;9.158;2023-11-22T00:23:14;11.90;99.90
2212;DHT22;48849;48.758;9.158;2023-11-22T00:25:42;11.80;99.90
2212;DHT22;48849;48.758;9.158;2023-11-22T00:28:09;11.70;99.90
2212;DHT22;48849;48.758;9.158;2023-11-22T00:30:37;11.70;99.90
2212;DHT22;48849;48.758;9.158;2023-11-22T00:33:03;11.60;99.90
2212;DHT22;48849;48.758;9.158;2023-11-22T00:35:31;11.60;99.90
2212;DHT22;48849;48.758;9.158;2023-11-22T00:37:58;11.60;99.90
2212;DHT22;48849;48.758;9.158;2023-11-22T00:40:24;11.50;99.90
2212;DHT22;48849;48.758;9.158;2023-11-22T00:42:52;11.50;99.90
2212;DHT22;48849;48.758;9.158;2023-11-22T00:45:19;11.50;99.90
2212;DHT22;48849;48.758;9.158;2023-11-22T00:47:47;11.50;99.90
2212;DHT22;48849;48.758;9.158;2023-11-22T00:50:13;11.50;99.90
2212;DHT22;48849;48.758;9.158;2023-11-22T00:52:45;11.50;99.90
2212;DHT22;48849;48.758;9.158;2023-11-22T00:55:12;11.40;99.90
2212;DHT22;48849;48.758;9.158;2023-11-22T00:57:39;11.40;99.90
2212;DHT22;48849;48.758;9.158;2023-11-22T01:00:08;11.40;99.90
2212;DHT22;48849;48.758;9.158;2023-11-22T01:02:36;11.40;99.90
2212;DHT22;48849;48.758;9.158;2023-11-22T01:05:05;11.40;99.90
2212;DHT22;48849;48.758;9.158;2023-11-22T01:07:32;11.40;99.90
2212;DHT22;48849;48.758;9.158;2023-11-22T01:09:59;11.30;99.90
2212;DHT22;48849;48.758;9.158;2023-11-22T01:12:26;11.30;99.90
2212;DHT22;48849;48.758;9.158;2023-11-22T01:14:53;11.30;99.90
2212;DHT22;48849;48.758;9.158;2023-11-22T01:17:21;11.20;99.90
2212;DHT22;48849;48.758;9.158;2023-11-22T01:19:48;11.20;99.90
2212;DHT22;48849;48.758;9.158;2023-11-22T01:22:16;11.20;99.90
2212;DHT22;48849;48.758;9.158;2023-11-22T01:24:43;11.10;99.90
2212;DHT22;48849;48.758;9.158;2023-11-22T01:27:09;11.10;99.90
2212;DHT22;48849;48.758;9.158;2023-11-22T01:29:36;11.10;99.90
2212;DHT22;48849;48.758;9.158;2023-11-22T01:32:03;11.10;99.90
2212;DHT22;48849;48.758;9.158;2023-11-22T01:34:31;11.10;99.90
2212;DHT22;48849;48.758;9.158;2023-11-22T01:36:58;11.10;99.90
2212;DHT22;48849;48.758;9.158;2023-11-22T01:39:25;11.00;99.90
2212;DHT22;48849;48.758;9.158;2023-11-22T01:41:53;11.00;99.90
2212;DHT22;48849;48.758;9.158;2023-11-22T01:44:19;11.00;99.90
2212;DHT22;48849;48.758;9.158;2023-11-22T01:46:46;11.00;99.90
2212;DHT22;48849;48.758;9.158;2023-11-22T01:49:13;11.00;99.90
2212;DHT22;48849;48.758;9.158;2023-11-22T01:51:41;11.00;99.90
2212;DHT22;48849;48.758;9.158;2023-11-22T01:54:09;10.90;99.90
2212;DHT22;48849;48.758;9.158;2023-11-22T01:56:37;10.90;99.90
2212;DHT22;48849;48.758;9.158;2023-11-22T01:59:05;10.90;99.90
2212;DHT22;48849;48.758;9.158;2023-11-22T02:01:32;10.90;99.90
2212;DHT22;48849;48.758;9.158;2023-11-22T02:03:59;11.00;99.90
2212;DHT22;48849;48.758;9.158;2023-11-22T02:06:26;10.80;99.90
2212;DHT22;48849;48.758;9.158;2023-11-22T02:08:54;10.80;99.90
2212;DHT22;48849;48.758;9.158;2023-11-22T02:11:21;10.80;99.90
2212;DHT22;48849;48.758;9.158;2023-11-22T02:13:50;10.70;99.90
2212;DHT22;48849;48.758;9.158;2023-11-22T02:16:16;10.70;99.90
2212;DHT22;48849;48.758;9.158;2023-11-22T02:18:44;10.70;99.90
2212;DHT22;48849;48.758;9.158;2023-11-22T02:21:11;10.70;99.90
2212;DHT22;48849;48.758;9.158;2023-11-22T02:23:39;10.70;99.90
2212;DHT22;48849;48.758;9.158;2023-11-22T02:26:07;10.60;99.90
2212;DHT22;48849;48.758;9.158;2023-11-22T02:28:34;10.60;99.90
2212;DHT22;48849;48.758;9.158;2023-11-22T02:31:01;10.60;99.90
2212;DHT22;48849;48.758;9.158;2023-11-22T02:33:28;10.60;99.90
2212;DHT22;48849;48.758;9.158;2023-11-22T02:35:55;10.60;99.90
2212;DHT22;48849;48.758;9.158;2023-11-22T02:38:22;10.50;99.90
2212;DHT22;48849;48.758;9.158;2023-11-22T02:40:51;10.50;99.90
2212;DHT22;48849;48.758;9.158;2023-11-22T02:43:18;10.50;99.90
2212;DHT22;48849;48.758;9.158;2023-11-22T02:45:45;10.50;99.90
2212;DHT22;48849;48.758;9.158;2023-11-22T02:48:12;10.40;99.90
2212;DHT22;48849;48.758;9.158;2023-11-22T02:50:39;10.40;99.90
2212;DHT22;48849;48.758;9.158;2023-11-22T02:53:09;10.40;99.90
2212;DHT22;48849;48.758;9.158;2023-11-22T02:55:35;10.40;99.90
2212;DHT22;48849;48.758;9.158;2023-11-22T02:58:04;10.40;99.90
2212;DHT22;48849;48.758;9.158;2023-11-22T03:00:31;10.40;99.90
2212;DHT22;48849;48.758;9.158;2023-11-22T03:03:00;10.30;99.90
2212;DHT22;48849;48.758;9.158;2023-11-22T03:05:28;10.30;99.90
2212;DHT22;48849;48.758;9.158;2023-11-22T03:07:55;10.30;99.90
2212;DHT22;48849;48.758;9.158;2023-11-22T03:10:22;10.30;99.90
2212;DHT22;48849;48.758;9.158;2023-11-22T03:12:49;10.30;99.90
2212;DHT22;48849;48.758;9.158;2023-11-22T03:15:17;10.30;99.90
2212;DHT22;48849;48.758;9.158;2023-11-22T03:17:43;10.30;99.90
2212;DHT22;48849;48.758;9.158;2023-11-22T03:20:10;10.20;99.90
2212;DHT22;48849;48.758;9.158;2023-11-22T03:22:37;10.30;99.90
2212;DHT22;48849;48.758;9.158;2023-11-22T03:25:05;10.20;99.90
2212;DHT22;48849;48.758;9.158;2023-11-22T03:27:32;10.20;99.90
2212;DHT22;48849;48.758;9.158;2023-11-22T03:29:59;10.20;99.90
2212;DHT22;48849;48.758;9.158;2023-11-22T03:32:27;10.20;99.90
2212;DHT22;48849;48.758;9.158;2023-11-22T03:34:54;10.10;99.90
2212;DHT22;48849;48.758;9.158;2023-11-22T03:37:22;10.10;99.90
2212;DHT22;48849;48.758;9.158;2023-11-22T03:39:49;10.10;99.90
2212;DHT22;48849;48.758;9.158;2023-11-22T03:42:16;10.10;99.90
2212;DHT22;48849;48.758;9.158;2023-11-22T03:44:43;10.10;99.90
2212;DHT22;48849;48.758;9.158;2023-11-22T03:47:10;10.00;99.90
2212;DHT22;48849;48.758;9.158;2023-11-22T03:49:39;10.00;99.90
2212;DHT22;48849;48.758;9.158;2023-11-22T03:52:06;10.00;99.90
2212;DHT22;48849;48.758;9.158;2023-11-22T03:54:34;10.00;99.90
2212;DHT22;48849;48.758;9.158;2023-11-22T03:57:01;10.00;99.90
2212;DHT22;48849;48.758;9.158;2023-11-22T03:59:31;9.90;99.90
2212;DHT22;48849;48.758;9.158;2023-11-22T04:01:58;9.90;99.90
2212;DHT22;48849;48.758;9.158;2023-11-22T04:04:24;9.80;99.90
2212;DHT22;48849;48.758;9.158;2023-11-22T04:06:52;9.80;99.90
2212;DHT22;48849;48.758;9.158;2023-11-22T04:09:19;9.80;99.90
2212;DHT22;48849;48.758;9.158;2023-11-22T04:11:46;9.80;99.90
2212;DHT22;48849;48.758;9.158;2023-11-22T04:14:13;9.80;99.90
2212;DHT22;48849;48.758;9.158;2023-11-22T04:16:40;9.80;99.90
2212;DHT22;48849;48.758;9.158;2023-11-22T04:19:07;9.80;99.90
2212;DHT22;48849;48.758;9.158;2023-11-22T04:21:33;9.80;99.90
2212;DHT22;48849;48.758;9.158;2023-11-22T04:24:02;9.80;99.90
2212;DHT22;48849;48.758;9.158;2023-11-22T04:26:28;9.80;99.90
2212;DHT22;48849;48.758;9.158;2023-11-22T04:28:55;9.70;99.90
2212;DHT22;48849;48.758;9.158;2023-11-22T04:31:24;9.80;99.90
2212;DHT22;48849;48.758;9.158;2023-11-22T04:33:50;9.80;99.90
2212;DHT22;48849;48.758;9.158;2023-11-22T04:36:18;9.70;99.90
2212;DHT22;48849;48.758;9.158;2023-11-22T04:38:44;9.70;99.90
2212;DHT22;48849;48.758;9.158;2023-11-22T04:41:12;9.70;99.90
2212;DHT22;48849;48.758;9.158;2023-11-22T04:43:39;9.70;99.90
2212;DHT22;48849;48.758;9.158;2023-11-22T04:46:07;9.70;99.90
2212;DHT22;48849;48.758;9.158;2023-11-22T04:48:34;9.70;99.90
2212;DHT22;48849;48.758;9.158;2023-11-22T04:51:02;9.70;99.90
2212;DHT22;48849;48.758;9.158;2023-11-22T04:53:29;9.70;99.90
2212;DHT22;48849;48.758;9.158;2023-11-22T04:55:55;9.70;99.90
2212;DHT22;48849;48.758;9.158;2023-11-22T04:58:24;9.70;99.90
2212;DHT22;48849;48.758;9.158;2023-11-22T05:00:51;9.80;99.90
2212;DHT22;48849;48.758;9.158;2023-11-22T05:03:17;9.70;99.90
2212;DHT22;48849;48.758;9.158;2023-11-22T05:05:44;9.70;99.90
2212;DHT22;48849;48.758;9.158;2023-11-22T05:08:11;9.70;99.90
2212;DHT22;48849;48.758;9.158;2023-11-22T05:10:38;9.70;99.90
2212;DHT22;48849;48.758;9.158;2023-11-22T05:13:05;9.70;99.90
2212;DHT22;48849;48.758;9.158;2023-11-22T05:15:33;9.70;99.90
2212;DHT22;48849;48.758;9.158;2023-11-22T05:18:00;9.60;99.90
2212;DHT22;48849;48.758;9.158;2023-11-22T05:20:27;9.70;99.90
2212;DHT22;48849;48.758;9.158;2023-11-22T05:22:54;9.60;99.90
2212;DHT22;48849;48.758;9.158;2023-11-22T05:25:20;9.60;99.90
2212;DHT22;48849;48.758;9.158;2023-11-22T05:27:47;9.60;99.90
2212;DHT22;48849;48.758;9.158;2023-11-22T05:30:16;9.70;99.90
2212;DHT22;48849;48.758;9.158;2023-11-22T05:32:44;9.60;99.90
2212;DHT22;48849;48.758;9.158;2023-11-22T05:35:11;9.80;99.90
2212;DHT22;48849;48.758;9.158;2023-11-22T05:37:38;9.60;99.90
2212;DHT22;48849;48.758;9.158;2023-11-22T05:40:06;9.60;99.90
2212;DHT22;48849;48.758;9.158;2023-11-22T05:42:35;9.60;99.90
2212;DHT22;48849;48.758;9.158;2023-11-22T05:45:03;9.60;99.90
2212;DHT22;48849;48.758;9.158;2023-11-22T05:47:31;9.70;99.90
2212;DHT22;48849;48.758;9.158;2023-11-22T05:49:59;9.60;99.90
2212;DHT22;48849;48.758;9.158;2023-11-22T05:52:26;9.70;99.90
2212;DHT22;48849;48.758;9.158;2023-11-22T05:54:52;9.70;99.90
2212;DHT22;48849;48.758;9.158;2023-11-22T05:57:19;9.70;99.90
2212;DHT22;48849;48.758;9.158;2023-11-22T05:59:46;9.70;99.90
2212;DHT22;48849;48.758;9.158;2023-11-22T06:02:13;9.70;99.90
2212;DHT22;48849;48.758;9.158;2023-11-22T06:04:40;9.70;99.90
2212;DHT22;48849;48.758;9.158;2023-11-22T06:07:09;9.80;99.90
2212;DHT22;48849;48.758;9.158;2023-11-22T06:09:35;9.70;99.90
2212;DHT22;48849;48.758;9.158;2023-11-22T06:12:03;9.70;99.90
2212;DHT22;48849;48.758;9.158;2023-11-22T06:14:29;9.70;99.90
2212;DHT22;48849;48.758;9.158;2023-11-22T06:16:56;9.70;99.90
2212;DHT22;48849;48.758;9.158;2023-11-22T06:19:23;9.60;99.90
2212;DHT22;48849;48.758;9.158;2023-11-22T06:21:50;9.60;99.90
2212;DHT22;48849;48.758;9.158;2023-11-22T06:24:18;9.60;99.90
2212;DHT22;48849;48.758;9.158;2023-11-22T06:26:45;9.60;99.90
2212;DHT22;48849;48.758;9.158;2023-11-22T06:29:12;9.60;99.90
2212;DHT22;48849;48.758;9.158;2023-11-22T06:31:40;9.60;99.90
2212;DHT22;48849;48.758;9.158;2023-11-22T06:34:06;9.60;99.90
2212;DHT22;48849;48.758;9.158;2023-11-22T06:36:33;9.50;99.90
2212;DHT22;48849;48.758;9.158;2023-11-22T06:39:00;9.50;99.90
2212;DHT22;48849;48.758;9.158;2023-11-22T06:41:28;9.50;99.90
2212;DHT22;48849;48.758;9.158;2023-11-22T06:43:55;9.50;99.90
2212;DHT22;48849;48.758;9.158;2023-11-22T06:46:22;9.50;99.90
2212;DHT22;48849;48.758;9.158;2023-11-22T06:48:49;9.50;99.90
2212;DHT22;48849;48.758;9.158;2023-11-22T06:51:16;9.50;99.90
2212;DHT22;48849;48.758;9.158;2023-11-22T06:53:43;9.50;99.90
2212;DHT22;48849;48.758;9.158;2023-11-22T06:56:11;9.50;99.90
2212;DHT22;48849;48.758;9.158;2023-11-22T06:58:39;9.50;99.90
2212;DHT22;48849;48.758;9.158;2023-11-22T07:01:06;9.50;99.90
2212;DHT22;48849;48.758;9.158;2023-11-22T07:03:35;9.50;99.90
2212;DHT22;48849;48.758;9.158;2023-11-22T07:06:03;9.50;99.90
2212;DHT22;48849;48.758;9.158;2023-11-22T07:08:30;9.50;99.90
2212;DHT22;48849;48.758;9.158;2023-11-22T07:10:56;9.50;99.90
2212;DHT22;48849;48.758;9.158;2023-11-22T07:13:23;9.50;99.90
2212;DHT22;48849;48.758;9.158;2023-11-22T07:15:53;9.40;99.90
2212;DHT22;48849;48.758;9.158;2023-11-22T07:18:20;9.40;99.90
2212;DHT22;48849;48.758;9.158;2023-11-22T07:20:49;9.40;99.90
2212;DHT22;48849;48.758;9.158;2023-11-22T07:23:19;9.40;99.90
2212;DHT22;48849;48.758;9.158;2023-11-22T07:25:46;9.30;99.90
2212;DHT22;48849;48.758;9.158;2023-11-22T07:28:13;9.40;99.90
2212;DHT22;48849;48.758;9.158;2023-11-22T07:30:40;9.40;99.90
2212;DHT22;48849;48.758;9.158;2023-11-22T07:33:08;9.40;99.90
2212;DHT22;48849;48.758;9.158;2023-11-22T07:35:36;9.40;99.90
2212;DHT22;48849;48.758;9.158;2023-11-22T07:38:04;9.40;99.90
2212;DHT22;48849;48.758;9.158;2023-11-22T07:40:36;9.30;99.90
2212;DHT22;48849;48.758;9.158;2023-11-22T07:43:03;9.30;99.90
2212;DHT22;48849;48.758;9.158;2023-11-22T07:45:30;9.30;99.90
2212;DHT22;48849;48.758;9.158;2023-11-22T07:47:57;9.30;99.90
2212;DHT22;48849;48.758;9.158;2023-11-22T07:50:26;9.20;99.90
2212;DHT22;48849;48.758;9.158;2023-11-22T07:52:53;9.20;99.90
2212;DHT22;48849;48.758;9.158;2023-11-22T07:55:20;9.20;99.90
2212;DHT22;48849;48.758;9.158;2023-11-22T07:57:48;9.20;99.90
2212;DHT22;48849;48.758;9.158;2023-11-22T08:00:15;9.10;99.90
2212;DHT22;48849;48.758;9.158;2023-11-22T08:02:44;9.10;99.90
2212;DHT22;48849;48.758;9.158;2023-11-22T08:05:11;9.20;99.90
2212;DHT22;48849;48.758;9.158;2023-11-22T08:07:42;9.20;99.90
2212;DHT22;48849;48.758;9.158;2023-11-22T08:10:11;9.10;99.90
2212;DHT22;48849;48.758;9.158;2023-11-22T08:12:44;9.10;99.90
2212;DHT22;48849;48.758;9.158;2023-11-22T08:15:13;9.10;99.90
2212;DHT22;48849;48.758;9.158;2023-11-22T08:17:41;9.10;99.90
2212;DHT22;48849;48.758;9.158;2023-11-22T08:20:08;9.10;99.90
2212;DHT22;48849;48.758;9.158;2023-11-22T08:22:38;9.00;99.90
2212;DHT22;48849;48.758;9.158;2023-11-22T08:25:09;9.00;99.90
2212;DHT22;48849;48.758;9.158;2023-11-22T08:27:38;9.00;99.90
2212;DHT22;48849;48.758;9.158;2023-11-22T08:30:07;9.00;99.90
2212;DHT22;48849;48.758;9.158;2023-11-22T08:32:39;9.00;99.90
2212;DHT22;48849;48.758;9.158;2023-11-22T08:35:07;9.00;99.90
2212;DHT22;48849;48.758;9.158;2023-11-22T08:37:34;9.00;99.90
2212;DHT22;48849;48.758;9.158;2023-11-22T08:40:05;8.90;99.90
2212;DHT22;48849;48.758;9.158;2023-11-22T08:42:33;8.90;99.90
2212;DHT22;48849;48.758;9.158;2023-11-22T08:45:00;8.90;99.90
2212;DHT22;48849;48.758;9.158;2023-11-22T08:47:27;8.90;99.90
2212;DHT22;48849;48.758;9.158;2023-11-22T08:49:54;8.80;99.90
2212;DHT22;48849;48.758;9.158;2023-11-22T08:52:21;8.80;99.90
2212;DHT22;48849;48.758;9.158;2023-11-22T08:54:48;8.80;99.90
2212;DHT22;48849;48.758;9.158;2023-11-22T08:57:15;8.80;99.90
2212;DHT22;48849;48.758;9.158;2023-11-22T08:59:43;8.80;99.90
2212;DHT22;48849;48.758;9.158;2023-11-22T09:02:10;8.80;99.90
2212;DHT22;48849;48.758;9.158;2023-11-22T09:04:38;8.80;99.90
2212;DHT22;48849;48.758;9.158;2023-11-22T09:07:07;8.80;99.90
2212;DHT22;48849;48.758;9.158;2023-11-22T09:09:35;8.90;99.90
2212;DHT22;48849;48.758;9.158;2023-11-22T09:12:02;8.90;99.90
2212;DHT22;48849;48.758;9.158;2023-11-22T09:14:30;8.90;99.90
2212;DHT22;48849;48.758;9.158;2023-11-22T09:16:58;8.90;99.90
2212;DHT22;48849;48.758;9.158;2023-11-22T09:19:26;8.80;99.90
2212;DHT22;48849;48.758;9.158;2023-11-22T09:21:53;8.90;99.90
2212;DHT22;48849;48.758;9.158;2023-11-22T09:24:21;8.90;99.90
2212;DHT22;48849;48.758;9.158;2023-11-22T09:26:47;8.80;99.90
2212;DHT22;48849;48.758;9.158;2023-11-22T09:29:14;8.80;99.90
2212;DHT22;48849;48.758;9.158;2023-11-22T09:31:41;8.80;99.90
2212;DHT22;48849;48.758;9.158;2023-11-22T09:34:09;8.80;99.90
2212;DHT22;48849;48.758;9.158;2023-11-22T09:36:36;8.90;99.90
2212;DHT22;48849;48.758;9.158;2023-11-22T09:39:03;8.90;99.90
2212;DHT22;48849;48.758;9.158;2023-11-22T09:41:34;8.80;99.90
2212;DHT22;48849;48.758;9.158;2023-11-22T09:44:01;8.90;99.90
2212;DHT22;48849;48.758;9.158;2023-11-22T09:46:29;8.90;99.90
2212;DHT22;48849;48.758;9.158;2023-11-22T09:49:00;8.90;99.90
2212;DHT22;48849;48.758;9.158;2023-11-22T09:51:29;8.90;99.90
2212;DHT22;48849;48.758;9.158;2023-11-22T09:54:00;8.80;99.90
2212;DHT22;48849;48.758;9.158;2023-11-22T09:56:35;8.90;99.90
2212;DHT22;48849;48.758;9.158;2023-11-22T09:59:03;8.80;99.90
2212;DHT22;48849;48.758;9.158;2023-11-22T10:01:31;8.80;99.90
2212;DHT22;48849;48.758;9.158;2023-11-22T10:03:59;8.80;99.90
2212;DHT22;48849;48.758;9.158;2023-11-22T10:06:26;8.90;99.90
2212;DHT22;48849;48.758;9.158;2023-11-22T10:08:57;8.90;99.90
2212;DHT22;48849;48.758;9.158;2023-11-22T10:11:25;8.90;99.90
2212;DHT22;48849;48.758;9.158;2023-11-22T10:13:54;8.90;99.90
2212;DHT22;48849;48.758;9.158;2023-11-22T10:16:22;8.80;99.90
2212;DHT22;48849;48.758;9.158;2023-11-22T10:18:49;8.80;99.90
2212;DHT22;48849;48.758;9.158;2023-11-22T10:21:20;8.80;99.90
2212;DHT22;48849;48.758;9.158;2023-11-22T10:23:47;8.80;99.90
2212;DHT22;48849;48.758;9.158;2023-11-22T10:26:18;8.80;99.90
2212;DHT22;48849;48.758;9.158;2023-11-22T10:28:45;8.80;99.90
2212;DHT22;48849;48.758;9.158;2023-11-22T10:31:12;8.80;99.90
2212;DHT22;48849;48.758;9.158;2023-11-22T10:33:40;8.80;99.90
2212;DHT22;48849;48.758;9.158;2023-11-22T10:36:07;8.80;99.90
2212;DHT22;48849;48.758;9.158;2023-11-22T10:38:34;8.80;99.90
2212;DHT22;48849;48.758;9.158;2023-11-22T10:41:03;8.80;99.90
2212;DHT22;48849;48.758;9.158;2023-11-22T10:43:33;8.80;99.90
2212;DHT22;48849;48.758;9.158;2023-11-22T10:46:01;8.80;99.90
2212;DHT22;48849;48.758;9.158;2023-11-22T10:48:30;8.70;99.90
2212;DHT22;48849;48.758;9.158;2023-11-22T10:51:00;8.70;99.90
2212;DHT22;48849;48.758;9.158;2023-11-22T10:53:32;8.70;99.90
2212;DHT22;48849;48.758;9.158;2023-11-22T10:56:11;8.80;99.90
2212;DHT22;48849;48.758;9.158;2023-11-22T10:58:46;8.70;99.90
2212;DHT22;48849;48.758;9.158;2023-11-22T11:01:15;8.70;99.90
2212;DHT22;48849;48.758;9.158;2023-11-22T11:03:46;8.70;99.90
2212;DHT22;48849;48.758;9.158;2023-11-22T11:06:16;8.70;99.90
2212;DHT22;48849;48.758;9.158;2023-11-22T11:08:45;8.80;99.90
2212;DHT22;48849;48.758;9.158;2023-11-22T11:11:13;8.80;99.90
2212;DHT22;48849;48.758;9.158;2023-11-22T11:13:42;8.80;99.90
2212;DHT22;48849;48.758;9.158;2023-11-22T11:16:09;8.90;99.90
2212;DHT22;48849;48.758;9.158;2023-11-22T11:18:36;8.80;99.90
2212;DHT22;48849;48.758;9.158;2023-11-22T11:21:08;8.80;99.90
2212;DHT22;48849;48.758;9.158;2023-11-22T11:23:39;8.80;99.90
2212;DHT22;48849;48.758;9.158;2023-11-22T11:26:13;8.90;99.90
2212;DHT22;48849;48.758;9.158;2023-11-22T11:28:45;8.80;99.90
2212;DHT22;48849;48.758;9.158;2023-11-22T11:31:13;8.80;99.90
2212;DHT22;48849;48.758;9.158;2023-11-22T11:33:54;8.80;99.90
2212;DHT22;48849;48.758;9.158;2023-11-22T11:36:23;8.70;99.90
2212;DHT22;48849;48.758;9.158;2023-11-22T11:38:51;8.70;99.90
2212;DHT22;48849;48.758;9.158;2023-11-22T11:41:18;8.70;99.90
2212;DHT22;48849;48.758;9.158;2023-11-22T11:43:48;8.80;99.90
2212;DHT22;48849;48.758;9.158;2023-11-22T11:46:16;8.80;99.90
2212;DHT22;48849;48.758;9.158;2023-11-22T11:48:43;8.70;99.90
2212;DHT22;48849;48.758;9.158;2023-11-22T11:51:13;8.70;99.90
2212;DHT22;48849;48.758;9.158;2023-11-22T11:53:40;8.70;99.90
2212;DHT22;48849;48.758;9.158;2023-11-22T11:56:07;8.70;99.90
2212;DHT22;48849;48.758;9.158;2023-11-22T11:58:34;8.80;99.90
2212;DHT22;48849;48.758;9.158;2023-11-22T12:01:03;8.80;99.90
2212;DHT22;48849;48.758;9.158;2023-11-22T12:03:29;8.80;99.90
2212;DHT22;48849;48.758;9.158;2023-11-22T12:05:56;8.80;99.90
2212;DHT22;48849;48.758;9.158;2023-11-22T12:08:23;8.80;99.90
2212;DHT22;48849;48.758;9.158;2023-11-22T12:10:50;8.90;99.90
2212;DHT22;48849;48.758;9.158;2023-11-22T12:13:19;8.90;99.90
2212;DHT22;48849;48.758;9.158;2023-11-22T12:15:47;8.80;99.90
2212;DHT22;48849;48.758;9.158;2023-11-22T12:18:15;8.80;99.90
2212;DHT22;48849;48.758;9.158;2023-11-22T12:20:44;8.90;99.90
2212;DHT22;48849;48.758;9.158;2023-11-22T12:23:19;8.90;99.90
2212;DHT22;48849;48.758;9.158;2023-11-22T12:25:47;8.80;99.90
2212;DHT22;48849;48.758;9.158;2023-11-22T12:28:16;8.80;99.90
2212;DHT22;48849;48.758;9.158;2023-11-22T12:30:44;8.80;99.90
2212;DHT22;48849;48.758;9.158;2023-11-22T12:33:11;8.80;99.90
2212;DHT22;48849;48.758;9.158;2023-11-22T12:35:42;8.90;99.90
2212;DHT22;48849;48.758;9.158;2023-11-22T12:38:09;8.90;99.90
2212;DHT22;48849;48.758;9.158;2023-11-22T12:40:37;8.90;99.90
2212;DHT22;48849;48.758;9.158;2023-11-22T12:43:04;8.90;99.90
2212;DHT22;48849;48.758;9.158;2023-11-22T12:45:33;8.80;99.90
2212;DHT22;48849;48.758;9.158;2023-11-22T12:48:20;8.80;99.90
2212;DHT22;48849;48.758;9.158;2023-11-22T12:50:48;8.80;99.90
2212;DHT22;48849;48.758;9.158;2023-11-22T12:53:15;8.80;99.90
2212;DHT22;48849;48.758;9.158;2023-11-22T12:55:43;8.80;99.90
2212;DHT22;48849;48.758;9.158;2023-11-22T12:58:11;8.80;99.90
2212;DHT22;48849;48.758;9.158;2023-11-22T13:00:38;8.80;99.90
2212;DHT22;48849;48.758;9.158;2023-11-22T13:03:05;8.80;99.90
2212;DHT22;48849;48.758;9.158;2023-11-22T13:05:32;8.70;99.90
2212;DHT22;48849;48.758;9.158;2023-11-22T13:08:00;8.70;99.90
2212;DHT22;48849;48.758;9.158;2023-11-22T13:10:29;8.80;99.90
2212;DHT22;48849;48.758;9.158;2023-11-22T13:12:56;8.80;99.90
2212;DHT22;48849;48.758;9.158;2023-11-22T13:15:23;8.70;99.90
2212;DHT22;48849;48.758;9.158;2023-11-22T13:17:52;8.70;99.90
2212;DHT22;48849;48.758;9.158;2023-11-22T13:20:24;8.60;99.90
2212;DHT22;48849;48.758;9.158;2023-11-22T13:22:51;8.60;99.90
2212;DHT22;48849;48.758;9.158;2023-11-22T13:25:19;8.70;99.90
2212;DHT22;48849;48.758;9.158;2023-11-22T13:27:47;8.80;99.90
2212;DHT22;48849;48.758;9.158;2023-11-22T13:30:14;8.70;99.90
2212;DHT22;48849;48.758;9.158;2023-11-22T13:32:43;8.70;99.90
2212;DHT22;48849;48.758;9.158;2023-11-22T13:35:10;8.70;99.90
2212;DHT22;48849;48.758;9.158;2023-11-22T13:37:41;8.70;99.90
2212;DHT22;48849;48.758;9.158;2023-11-22T13:40:10;8.70;99.90
2212;DHT22;48849;48.758;9.158;2023-11-22T13:42:41;8.70;99.90
2212;DHT22;48849;48.758;9.158;2023-11-22T13:45:09;8.70;99.90
2212;DHT22;48849;48.758;9.158;2023-11-22T13:47:36;8.70;99.90
2212;DHT22;48849;48.758;9.158;2023-11-22T13:50:03;8.60;99.90
2212;DHT22;48849;48.758;9.158;2023-11-22T13:52:32;8.60;99.90
2212;DHT22;48849;48.758;9.158;2023-11-22T13:54:58;8.50;99.90
2212;DHT22;48849;48.758;9.158;2023-11-22T13:57:26;8.50;99.90
2212;DHT22;48849;48.758;9.158;2023-11-22T13:59:54;8.60;99.90
2212;DHT22;48849;48.758;9.158;2023-11-22T14:02:21;8.60;99.90
2212;DHT22;48849;48.758;9.158;2023-11-22T14:04:48;8.50;99.90
2212;DHT22;48849;48.758;9.158;2023-11-22T14:07:15;8.50;99.90
2212;DHT22;48849;48.758;9.158;2023-11-22T14:09:42;8.50;99.90
2212;DHT22;48849;48.758;9.158;2023-11-22T14:12:12;8.50;99.90
2212;DHT22;48849;48.758;9.158;2023-11-22T14:14:39;8.60;99.90
2212;DHT22;48849;48.758;9.158;2023-11-22T14:17:07;8.50;99.90
2212;DHT22;48849;48.758;9.158;2023-11-22T14:19:33;8.60;99.90
2212;DHT22;48849;48.758;9.158;2023-11-22T14:22:00;8.60;99.90
2212;DHT22;48849;48.758;9.158;2023-11-22T14:24:27;8.60;99.90
2212;DHT22;48849;48.758;9.158;2023-11-22T14:26:55;8.60;99.90
2212;DHT22;48849;48.758;9.158;2023-11-22T14:29:25;8.50;99.90
2212;DHT22;48849;48.758;9.158;2023-11-22T14:31:52;8.50;99.90
2212;DHT22;48849;48.758;9.158;2023-11-22T14:34:20;8.50;99.90
2212;DHT22;48849;48.758;9.158;2023-11-22T14:36:47;8.60;99.90
2212;DHT22;48849;48.758;9.158;2023-11-22T14:39:14;8.60;99.90
2212;DHT22;48849;48.758;9.158;2023-11-22T14:41:41;8.60;99.90
2212;DHT22;48849;48.758;9.158;2023-11-22T14:44:10;8.60;99.90
2212;DHT22;48849;48.758;9.158;2023-11-22T14:46:37;8.60;99.90
2212;DHT22;48849;48.758;9.158;2023-11-22T14:49:04;8.60;99.90
2212;DHT22;48849;48.758;9.158;2023-11-22T14:51:33;8.60;99.90
2212;DHT22;48849;48.758;9.158;2023-11-22T14:54:00;8.60;99.90
2212;DHT22;48849;48.758;9.158;2023-11-22T14:56:26;8.60;99.90
2212;DHT22;48849;48.758;9.158;2023-11-22T14:58:54;8.60;99.90
2212;DHT22;48849;48.758;9.158;2023-11-22T15:01:21;8.50;99.90
2212;DHT22;48849;48.758;9.158;2023-11-22T15:03:49;8.50;99.90
2212;DHT22;48849;48.758;9.158;2023-11-22T15:06:17;8.50;99.90
2212;DHT22;48849;48.758;9.158;2023-11-22T15:08:45;8.60;99.90
2212;DHT22;48849;48.758;9.158;2023-11-22T15:11:12;8.60;99.90
2212;DHT22;48849;48.758;9.158;2023-11-22T15:13:40;8.60;99.90
2212;DHT22;48849;48.758;9.158;2023-11-22T15:16:07;8.60;99.90
2212;DHT22;48849;48.758;9.158;2023-11-22T15:18:34;8.60;99.90
2212;DHT22;48849;48.758;9.158;2023-11-22T15:21:01;8.50;99.90
2212;DHT22;48849;48.758;9.158;2023-11-22T15:23:28;8.50;99.90
2212;DHT22;48849;48.758;9.158;2023-11-22T15:25:56;8.50;99.90
2212;DHT22;48849;48.758;9.158;2023-11-22T15:28:24;8.50;99.90
2212;DHT22;48849;48.758;9.158;2023-11-22T15:30:51;8.50;99.90
2212;DHT22;48849;48.758;9.158;2023-11-22T15:33:21;8.50;99.90
2212;DHT22;48849;48.758;9.158;2023-11-22T15:35:48;8.50;99.90
2212;DHT22;48849;48.758;9.158;2023-11-22T15:38:15;8.60;99.90
2212;DHT22;48849;48.758;9.158;2023-11-22T15:40:42;8.50;99.90
2212;DHT22;48849;48.758;9.158;2023-11-22T15:43:10;8.50;99.90
2212;DHT22;48849;48.758;9.158;2023-11-22T15:45:39;8.50;99.90
2212;DHT22;48849;48.758;9.158;2023-11-22T15:48:08;8.50;99.90
2212;DHT22;48849;48.758;9.158;2023-11-22T15:50:35;8.50;99.90
2212;DHT22;48849;48.758;9.158;2023-11-22T15:53:01;8.50;99.90
2212;DHT22;48849;48.758;9.158;2023-11-22T15:55:28;8.50;99.90
2212;DHT22;48849;48.758;9.158;2023-11-22T15:57:55;8.50;99.90
2212;DHT22;48849;48.758;9.158;2023-11-22T16:00:24;8.50;99.90